Time;durP1;ratioP1;P1;durP2;ratioP2;P2;SDS_P1;SDS_P2;PMS_P1;PMS_P2;Temp;Humidity;BMP_temperature;BMP_pressure;BME280_temperature;BME280_humidity;BME280_pressure;Samples;Min_cycle;Max_cycle;Signal;HPM_P1;HPM_P2
2024/02/06 00:00:08;;;;;;;10.63;3.60;;;8.20;99.90;;;;;;4400230;28;656881;-71
2024/02/06 00:02:55;;;;;;;10.87;2.90;;;8.10;99.90;;;;;;4392920;28;657210;-71
2024/02/06 00:05:42;;;;;;;11.13;3.10;;;8.20;99.90;;;;;;4387484;28;656328;-72
2024/02/06 00:08:30;;;;;;;12.30;3.57;;;8.20;99.90;;;;;;4419802;28;657626;-71
2024/02/06 00:11:17;;;;;;;8.30;3.43;;;8.20;99.90;;;;;;4407817;28;657183;-71
2024/02/06 00:14:10;;;;;;;12.43;3.00;;;8.10;99.90;;;;;;4399076;28;655650;-71
2024/02/06 00:16:57;;;;;;;10.67;3.37;;;8.10;99.90;;;;;;4418657;28;656777;-71
2024/02/06 00:19:44;;;;;;;9.23;3.13;;;8.10;99.90;;;;;;4404823;28;657155;-71
2024/02/06 00:22:31;;;;;;;8.17;2.80;;;8.10;99.90;;;;;;4404279;28;655804;-71
2024/02/06 00:25:19;;;;;;;11.30;2.80;;;8.10;99.90;;;;;;4389160;28;655571;-71
2024/02/06 00:28:06;;;;;;;9.93;2.87;;;8.10;99.90;;;;;;4407262;28;657258;-71
2024/02/06 00:30:55;;;;;;;11.03;2.93;;;8.10;99.90;;;;;;4394010;28;656215;-71
2024/02/06 00:33:42;;;;;;;8.00;2.27;;;8.00;99.90;;;;;;4412581;28;657014;-71
2024/02/06 00:36:30;;;;;;;8.80;3.30;;;8.00;99.90;;;;;;4410645;28;655630;-71
2024/02/06 00:39:17;;;;;;;14.40;2.57;;;7.90;99.90;;;;;;4405574;28;655730;-71
2024/02/06 00:42:05;;;;;;;12.17;3.70;;;8.00;99.90;;;;;;4396115;28;657535;-71
2024/02/06 00:44:52;;;;;;;9.80;3.10;;;7.90;99.90;;;;;;4416837;28;656385;-71
2024/02/06 00:47:40;;;;;;;8.83;2.83;;;8.00;99.90;;;;;;4391288;28;656729;-72
2024/02/06 00:50:28;;;;;;;11.73;3.17;;;8.00;99.90;;;;;;4400107;28;655534;-72
2024/02/06 00:53:15;;;;;;;10.03;3.03;;;7.90;99.90;;;;;;4401214;28;657398;-71
2024/02/06 00:56:05;;;;;;;8.50;2.53;;;7.90;99.90;;;;;;4414574;28;656623;-71
2024/02/06 00:58:52;;;;;;;13.70;2.10;;;7.90;99.90;;;;;;4418479;28;656114;-70
2024/02/06 01:01:39;;;;;;;9.37;3.07;;;7.80;99.90;;;;;;4381087;28;656728;-71
2024/02/06 01:04:27;;;;;;;7.73;2.20;;;7.80;99.90;;;;;;4427225;28;655885;-71
2024/02/06 01:07:15;;;;;;;11.17;2.57;;;7.80;99.90;;;;;;4387316;28;655052;-71
2024/02/06 01:10:02;;;;;;;7.87;2.77;;;7.80;99.90;;;;;;4400321;28;656603;-71
2024/02/06 01:12:49;;;;;;;7.10;2.63;;;7.80;99.90;;;;;;4382730;28;656151;-71
2024/02/06 01:15:36;;;;;;;11.43;2.83;;;7.70;99.90;;;;;;4424851;28;655231;-71
2024/02/06 01:18:24;;;;;;;10.03;3.07;;;7.70;99.90;;;;;;4402890;28;656238;-71
2024/02/06 01:21:12;;;;;;;14.47;3.43;;;7.70;99.90;;;;;;4416713;28;656601;-71
2024/02/06 01:24:00;;;;;;;17.50;3.27;;;7.60;99.90;;;;;;4378696;28;656994;-71
2024/02/06 01:26:47;;;;;;;9.00;3.20;;;7.60;99.90;;;;;;4411375;28;656823;-71
2024/02/06 01:29:34;;;;;;;9.67;2.53;;;7.60;99.90;;;;;;4378395;28;655850;-71
2024/02/06 01:32:22;;;;;;;9.47;2.80;;;7.60;99.90;;;;;;4413548;28;654959;-71
2024/02/06 01:35:10;;;;;;;8.23;2.47;;;7.50;99.90;;;;;;4399704;28;655285;-71
2024/02/06 01:37:59;;;;;;;12.63;3.10;;;7.40;99.90;;;;;;4393164;28;655666;-71
2024/02/06 01:40:46;;;;;;;10.10;2.67;;;7.40;99.90;;;;;;4414930;28;655998;-70
2024/02/06 01:43:33;;;;;;;12.20;2.47;;;7.40;99.90;;;;;;4403240;28;656358;-71
2024/02/06 01:46:21;;;;;;;7.25;2.65;;;7.40;99.90;;;;;;4434893;28;657407;-71
2024/02/06 01:49:09;;;;;;;6.33;2.33;;;7.40;99.90;;;;;;4410235;28;655480;-71
2024/02/06 01:51:56;;;;;;;8.47;2.83;;;7.40;99.90;;;;;;4437936;28;656416;-71
2024/02/06 01:54:44;;;;;;;11.10;2.80;;;7.30;99.90;;;;;;4419337;28;655151;-72
2024/02/06 01:57:32;;;;;;;8.40;2.47;;;7.30;99.90;;;;;;4430860;28;656045;-71
2024/02/06 02:00:19;;;;;;;4.90;1.80;;;7.30;99.90;;;;;;4408327;28;655528;-71
2024/02/06 02:03:07;;;;;;;12.33;2.80;;;7.30;99.90;;;;;;4440654;28;656098;-70
2024/02/06 02:05:54;;;;;;;6.73;1.90;;;7.30;99.90;;;;;;4418509;28;656541;-71
2024/02/06 02:08:41;;;;;;;9.02;2.45;;;7.20;99.90;;;;;;4438954;28;655490;-72
2024/02/06 02:11:30;;;;;;;8.80;2.17;;;7.20;99.90;;;;;;4420312;28;655537;-71
2024/02/06 02:14:17;;;;;;;6.53;2.83;;;7.20;99.90;;;;;;4434965;28;655704;-72
2024/02/06 02:17:05;;;;;;;11.53;3.43;;;7.20;99.90;;;;;;4433992;28;655904;-71
2024/02/06 02:19:52;;;;;;;11.70;3.07;;;7.10;99.90;;;;;;4431119;28;657086;-72
2024/02/06 02:22:41;;;;;;;5.60;1.37;;;7.10;99.90;;;;;;4437193;28;656636;-70
2024/02/06 02:25:28;;;;;;;7.03;2.57;;;7.10;99.90;;;;;;4413720;28;655221;-72
2024/02/06 02:28:15;;;;;;;7.73;2.33;;;7.10;99.90;;;;;;4437642;28;656522;-71
2024/02/06 02:31:03;;;;;;;4.97;2.33;;;7.00;99.90;;;;;;4419715;28;655332;-72
2024/02/06 02:33:50;;;;;;;7.07;2.00;;;7.00;99.90;;;;;;4415801;28;655932;-71
2024/02/06 02:36:39;;;;;;;5.20;2.50;;;7.00;99.90;;;;;;4422276;28;655864;-72
2024/02/06 02:39:28;;;;;;;6.53;3.17;;;6.90;99.90;;;;;;4435811;28;655673;-71
2024/02/06 02:42:15;;;;;;;9.73;2.90;;;6.90;99.90;;;;;;4412037;28;655850;-71
2024/02/06 02:45:03;;;;;;;10.43;3.13;;;6.80;99.90;;;;;;4422559;28;655847;-72
2024/02/06 02:47:50;;;;;;;10.93;3.13;;;6.90;99.90;;;;;;4424546;28;657773;-71
2024/02/06 02:50:37;;;;;;;9.50;3.37;;;6.80;99.90;;;;;;4406224;28;656993;-72
2024/02/06 02:53:24;;;;;;;10.70;3.27;;;6.90;99.90;;;;;;4428473;28;655659;-71
2024/02/06 02:56:13;;;;;;;11.37;3.10;;;6.80;99.90;;;;;;4431701;28;656421;-71
2024/02/06 02:59:00;;;;;;;11.87;3.10;;;6.80;99.90;;;;;;4413232;28;657361;-72
2024/02/06 03:01:47;;;;;;;9.80;3.00;;;6.70;99.90;;;;;;4417157;28;656993;-72
2024/02/06 03:04:35;;;;;;;11.30;3.10;;;6.70;99.90;;;;;;4443567;28;656250;-72
2024/02/06 03:07:22;;;;;;;7.03;2.50;;;6.60;99.90;;;;;;4439600;28;657568;-70
2024/02/06 03:10:10;;;;;;;10.00;3.00;;;6.70;99.90;;;;;;4437167;28;655820;-72
2024/02/06 03:12:59;;;;;;;15.37;3.33;;;6.70;99.90;;;;;;4425890;28;656873;-72
2024/02/06 03:15:46;;;;;;;3.33;1.80;;;6.60;99.90;;;;;;4438010;28;656952;-71
2024/02/06 03:18:33;;;;;;;7.67;3.03;;;6.70;99.90;;;;;;4419561;28;655340;-70
2024/02/06 03:21:20;;;;;;;5.17;2.20;;;6.60;99.90;;;;;;4433354;28;655830;-72
2024/02/06 03:24:08;;;;;;;8.87;3.20;;;6.60;99.90;;;;;;4414219;28;655730;-72
2024/02/06 03:26:55;;;;;;;9.27;2.88;;;6.60;99.90;;;;;;4415107;28;656741;-70
2024/02/06 03:29:44;;;;;;;8.57;2.00;;;6.60;99.90;;;;;;4401766;28;655569;-72
2024/02/06 03:32:31;;;;;;;10.87;2.93;;;6.60;99.90;;;;;;4437436;28;655566;-71
2024/02/06 03:35:18;;;;;;;9.43;2.80;;;6.60;99.90;;;;;;4420247;28;656798;-71
2024/02/06 03:38:05;;;;;;;10.50;3.20;;;6.60;99.90;;;;;;4443280;28;655770;-71
2024/02/06 03:40:52;;;;;;;11.80;3.07;;;6.50;99.90;;;;;;4413325;28;656388;-72
2024/02/06 03:43:40;;;;;;;8.53;2.90;;;6.50;99.90;;;;;;4429793;28;657797;-72
2024/02/06 03:46:29;;;;;;;13.00;3.13;;;6.50;99.90;;;;;;4424275;28;656374;-72
2024/02/06 03:49:16;;;;;;;11.27;2.20;;;6.50;99.90;;;;;;4428800;28;658120;-71
2024/02/06 03:52:04;;;;;;;9.70;3.00;;;6.50;99.90;;;;;;4399979;28;656927;-71
2024/02/06 03:54:52;;;;;;;11.70;2.73;;;6.50;99.90;;;;;;4429667;28;655501;-71
2024/02/06 03:57:39;;;;;;;6.93;2.80;;;6.50;99.90;;;;;;4396786;28;656614;-72
2024/02/06 04:00:27;;;;;;;9.87;2.77;;;6.40;99.90;;;;;;4440956;28;655291;-72
2024/02/06 04:03:15;;;;;;;9.63;2.83;;;6.50;99.90;;;;;;4414238;28;655613;-72
2024/02/06 04:06:02;;;;;;;6.47;2.83;;;6.40;99.90;;;;;;4424901;28;655958;-71
2024/02/06 04:08:50;;;;;;;9.97;3.23;;;6.40;99.90;;;;;;4437125;28;655740;-72
2024/02/06 04:11:37;;;;;;;15.63;3.37;;;6.30;99.90;;;;;;4438178;28;656148;-72
2024/02/06 04:14:25;;;;;;;14.33;3.10;;;6.30;99.90;;;;;;4439220;28;656623;-71
2024/02/06 04:17:12;;;;;;;5.73;2.20;;;6.30;99.90;;;;;;4432957;28;656147;-71
2024/02/06 04:20:00;;;;;;;11.17;3.07;;;6.40;99.90;;;;;;4412017;28;655412;-72
2024/02/06 04:22:48;;;;;;;12.30;3.40;;;6.30;99.90;;;;;;4419124;28;656717;-72
2024/02/06 04:25:35;;;;;;;6.17;2.63;;;6.40;99.90;;;;;;4439510;28;657670;-71
2024/02/06 04:28:22;;;;;;;11.93;3.07;;;6.40;99.90;;;;;;4415461;28;654959;-72
2024/02/06 04:31:11;;;;;;;13.53;3.10;;;6.30;99.90;;;;;;4432570;28;657375;-72
2024/02/06 04:33:58;;;;;;;14.97;3.47;;;6.20;99.90;;;;;;4411671;28;656142;-72
2024/02/06 04:36:47;;;;;;;13.80;3.30;;;6.20;99.90;;;;;;4435691;28;656247;-71
2024/02/06 04:39:34;;;;;;;12.27;3.40;;;6.20;99.90;;;;;;4424823;28;656334;-72
2024/02/06 04:42:21;;;;;;;6.67;3.00;;;6.20;99.90;;;;;;4438515;28;656676;-72
2024/02/06 04:45:09;;;;;;;10.67;3.63;;;6.20;99.90;;;;;;4404054;28;655611;-71
2024/02/06 04:47:56;;;;;;;13.87;3.03;;;6.20;99.90;;;;;;4433921;28;656496;-72
2024/02/06 04:50:43;;;;;;;12.67;3.23;;;6.00;99.90;;;;;;4421375;28;657674;-71
2024/02/06 04:53:32;;;;;;;6.57;1.83;;;6.00;99.90;;;;;;4434528;28;658042;-71
2024/02/06 04:56:22;;;;;;;14.63;3.80;;;6.00;99.90;;;;;;4410497;28;655894;-71
2024/02/06 04:59:09;;;;;;;13.00;3.23;;;5.90;99.90;;;;;;4413076;28;657670;-72
2024/02/06 05:01:57;;;;;;;10.80;2.83;;;5.90;99.90;;;;;;4438504;28;655931;-71
2024/02/06 05:04:44;;;;;;;7.53;2.10;;;5.90;99.90;;;;;;4408612;28;656844;-72
2024/02/06 05:07:31;;;;;;;9.17;2.97;;;5.80;99.90;;;;;;4446831;28;655590;-70
2024/02/06 05:10:20;;;;;;;10.10;3.13;;;5.70;99.90;;;;;;4414288;28;655162;-72
2024/02/06 05:13:08;;;;;;;8.25;2.50;;;5.70;99.90;;;;;;4421150;28;656810;-72
2024/02/06 05:15:55;;;;;;;15.30;3.83;;;5.70;99.90;;;;;;4427039;28;655910;-71
2024/02/06 05:18:42;;;;;;;14.47;4.10;;;5.70;99.90;;;;;;4430680;28;656185;-72
2024/02/06 05:21:30;;;;;;;9.57;3.80;;;5.70;99.90;;;;;;4436560;28;657472;-72
2024/02/06 05:24:17;;;;;;;11.13;3.73;;;5.70;99.90;;;;;;4423065;28;655192;-71
2024/02/06 05:27:06;;;;;;;15.30;4.07;;;5.60;99.90;;;;;;4408417;28;656815;-72
2024/02/06 05:29:53;;;;;;;10.37;3.67;;;5.50;99.90;;;;;;4416718;28;656843;-71
2024/02/06 05:32:40;;;;;;;15.60;3.63;;;5.50;99.90;;;;;;4432853;28;657989;-71
2024/02/06 05:35:27;;;;;;;14.13;4.03;;;5.40;99.90;;;;;;4422757;28;656473;-71
2024/02/06 05:38:15;;;;;;;15.10;4.20;;;5.50;99.90;;;;;;4445094;28;656837;-71
2024/02/06 05:41:02;;;;;;;7.70;2.40;;;5.40;99.90;;;;;;4418561;28;656544;-72
2024/02/06 05:43:51;;;;;;;11.50;3.90;;;5.40;99.90;;;;;;4435413;28;656187;-71
2024/02/06 05:46:39;;;;;;;6.57;2.17;;;5.40;99.90;;;;;;4414729;28;656906;-72
2024/02/06 05:49:26;;;;;;;11.07;3.70;;;5.40;99.90;;;;;;4439098;28;655996;-71
2024/02/06 05:52:13;;;;;;;12.57;4.13;;;5.30;99.90;;;;;;4419824;28;656416;-72
2024/02/06 05:55:00;;;;;;;18.43;4.10;;;5.20;99.90;;;;;;4438555;28;656720;-72
2024/02/06 05:57:48;;;;;;;12.97;3.00;;;5.20;99.90;;;;;;4406825;28;657001;-72
2024/02/06 06:00:37;;;;;;;16.87;4.27;;;5.10;99.90;;;;;;4439548;28;657305;-71
2024/02/06 06:03:24;;;;;;;14.50;4.80;;;5.00;99.90;;;;;;4402271;28;657695;-72
2024/02/06 06:06:12;;;;;;;17.58;4.75;;;5.10;99.90;;;;;;4447314;28;657189;-71
2024/02/06 06:08:59;;;;;;;17.50;4.63;;;4.90;99.90;;;;;;4422307;28;656711;-73
2024/02/06 06:11:46;;;;;;;14.17;4.43;;;4.80;99.90;;;;;;4446326;28;656484;-71
2024/02/06 06:14:33;;;;;;;13.40;5.03;;;4.70;99.90;;;;;;4420095;28;656948;-71
2024/02/06 06:17:22;;;;;;;19.10;5.00;;;4.80;99.90;;;;;;4440196;28;656967;-71
2024/02/06 06:20:09;;;;;;;11.27;3.27;;;4.80;99.90;;;;;;4405604;28;657442;-71
2024/02/06 06:22:57;;;;;;;10.53;4.63;;;4.90;99.90;;;;;;4441759;28;657395;-71
2024/02/06 06:25:44;;;;;;;8.40;2.90;;;4.90;99.90;;;;;;4415863;28;656520;-71
2024/02/06 06:28:31;;;;;;;14.97;4.93;;;4.90;99.90;;;;;;4434677;28;657133;-71
2024/02/06 06:31:18;;;;;;;12.97;4.20;;;4.90;99.90;;;;;;4410985;28;656739;-72
2024/02/06 06:34:07;;;;;;;12.80;4.43;;;5.00;99.90;;;;;;4437419;28;657191;-72
2024/02/06 06:36:54;;;;;;;17.03;4.53;;;5.00;99.90;;;;;;4414216;28;657283;-72
2024/02/06 06:39:41;;;;;;;16.93;2.87;;;5.00;99.90;;;;;;4429336;28;656707;-71
2024/02/06 06:42:28;;;;;;;5.25;2.20;;;5.20;99.90;;;;;;4427320;28;657071;-73
2024/02/06 06:45:16;;;;;;;15.50;5.30;;;5.10;99.90;;;;;;4421986;28;655600;-72
2024/02/06 06:48:03;;;;;;;5.47;2.37;;;5.10;99.90;;;;;;4404473;28;656458;-72
2024/02/06 06:50:52;;;;;;;14.83;4.73;;;5.20;99.90;;;;;;4449645;28;655792;-72
2024/02/06 06:53:39;;;;;;;10.83;4.43;;;5.20;99.90;;;;;;4422283;28;657506;-71
2024/02/06 06:56:26;;;;;;;17.43;5.57;;;5.30;99.90;;;;;;4449779;28;656236;-72
2024/02/06 06:59:14;;;;;;;7.63;2.67;;;5.20;99.90;;;;;;4403690;28;656415;-72
2024/02/06 07:02:01;;;;;;;14.27;5.80;;;5.30;99.90;;;;;;4438638;28;655962;-72
2024/02/06 07:04:48;;;;;;;18.63;5.33;;;5.30;99.90;;;;;;4402124;28;656855;-72
2024/02/06 07:07:37;;;;;;;24.53;6.03;;;5.30;99.90;;;;;;4431450;28;657552;-72
2024/02/06 07:10:24;;;;;;;15.10;5.00;;;5.30;99.90;;;;;;4418260;28;656579;-72
2024/02/06 07:13:11;;;;;;;22.70;5.80;;;5.30;99.90;;;;;;4437780;28;657572;-72
2024/02/06 07:15:58;;;;;;;17.00;5.33;;;5.40;99.90;;;;;;4412507;28;657982;-72
2024/02/06 07:18:45;;;;;;;23.03;5.70;;;5.40;99.90;;;;;;4439049;28;657231;-72
2024/02/06 07:21:33;;;;;;;14.80;5.30;;;5.40;99.90;;;;;;4415680;28;657291;-72
2024/02/06 07:24:21;;;;;;;14.23;5.80;;;5.40;99.90;;;;;;4428254;28;656864;-72
2024/02/06 07:27:08;;;;;;;18.93;5.77;;;5.40;99.90;;;;;;4425463;28;656281;-72
2024/02/06 07:29:55;;;;;;;20.33;5.95;;;5.50;99.90;;;;;;4438576;28;657522;-71
2024/02/06 07:32:43;;;;;;;20.27;6.30;;;5.50;99.90;;;;;;4418059;28;656509;-71
2024/02/06 07:35:30;;;;;;;12.73;4.30;;;5.60;99.90;;;;;;4419568;28;657541;-72
2024/02/06 07:38:17;;;;;;;20.23;6.80;;;5.70;99.90;;;;;;4429031;28;656844;-72
2024/02/06 07:41:06;;;;;;;10.27;2.97;;;5.70;99.90;;;;;;4430663;28;656500;-72
2024/02/06 07:43:53;;;;;;;15.47;5.20;;;5.70;99.90;;;;;;4410347;28;656577;-72
2024/02/06 07:46:40;;;;;;;14.77;5.23;;;5.80;99.90;;;;;;4443739;28;658089;-72
2024/02/06 07:49:27;;;;;;;14.47;4.37;;;5.80;99.90;;;;;;4424217;28;657530;-72
2024/02/06 07:52:15;;;;;;;18.33;4.97;;;5.90;99.90;;;;;;4434582;28;657318;-72
2024/02/06 07:55:03;;;;;;;19.93;5.90;;;5.90;99.90;;;;;;4415837;28;656496;-73
2024/02/06 07:57:52;;;;;;;13.20;4.77;;;5.90;99.90;;;;;;4442807;28;657177;-72
2024/02/06 08:00:39;;;;;;;28.10;6.63;;;6.00;99.90;;;;;;4413397;28;656862;-72
2024/02/06 08:03:26;;;;;;;12.43;4.77;;;5.90;99.90;;;;;;4432642;28;656339;-72
2024/02/06 08:06:13;;;;;;;18.13;7.10;;;6.00;99.90;;;;;;4421395;28;656154;-72
2024/02/06 08:09:01;;;;;;;16.65;5.65;;;6.00;99.90;;;;;;4433008;28;657537;-72
2024/02/06 08:11:48;;;;;;;19.07;4.57;;;6.10;99.90;;;;;;4415497;28;656548;-72
2024/02/06 08:14:37;;;;;;;11.67;5.47;;;6.20;99.90;;;;;;4432782;28;657391;-72
2024/02/06 08:17:24;;;;;;;8.20;3.17;;;6.20;99.90;;;;;;4418249;28;656912;-71
2024/02/06 08:20:12;;;;;;;21.43;5.73;;;6.30;99.90;;;;;;4435850;28;656043;-72
2024/02/06 08:22:59;;;;;;;22.43;7.30;;;6.40;99.90;;;;;;4420229;28;657571;-72
2024/02/06 08:25:46;;;;;;;19.07;6.90;;;6.30;99.90;;;;;;4444316;28;656964;-71
2024/02/06 08:28:34;;;;;;;19.00;6.80;;;6.40;99.90;;;;;;4416624;28;656442;-72
2024/02/06 08:31:22;;;;;;;19.00;6.40;;;6.50;99.90;;;;;;4428895;28;656960;-72
2024/02/06 08:34:11;;;;;;;24.07;6.73;;;6.60;99.90;;;;;;4418531;28;657470;-72
2024/02/06 08:36:58;;;;;;;26.33;6.10;;;6.60;99.90;;;;;;4418157;28;657304;-72
2024/02/06 08:39:45;;;;;;;16.88;6.85;;;6.70;99.90;;;;;;4443552;28;657436;-72
2024/02/06 08:42:33;;;;;;;11.87;4.77;;;6.70;99.90;;;;;;4413647;28;657180;-71
2024/02/06 08:45:20;;;;;;;24.73;6.13;;;6.70;99.90;;;;;;4441671;28;657437;-72
2024/02/06 08:48:09;;;;;;;6.70;2.33;;;6.60;99.90;;;;;;4426793;28;656459;-72
2024/02/06 08:50:56;;;;;;;19.27;5.90;;;6.70;99.90;;;;;;4443603;28;655509;-72
2024/02/06 08:53:44;;;;;;;13.10;4.03;;;6.70;99.90;;;;;;4401422;28;656515;-72
2024/02/06 08:56:33;;;;;;;18.20;4.90;;;6.80;99.90;;;;;;4439083;28;656919;-72
2024/02/06 08:59:20;;;;;;;9.13;3.37;;;6.80;99.90;;;;;;4414966;28;657744;-71
2024/02/06 09:02:08;;;;;;;13.43;5.23;;;6.90;99.90;;;;;;4434523;28;655816;-72
2024/02/06 09:04:58;;;;;;;1.77;1.50;;;7.00;99.90;;;;;;4434317;28;656780;-71
2024/02/06 09:07:45;;;;;;;19.50;4.73;;;7.00;99.90;;;;;;4410964;28;655623;-72
2024/02/06 09:10:32;;;;;;;2.60;1.70;;;7.10;99.90;;;;;;4412454;28;656011;-72
2024/02/06 09:13:21;;;;;;;13.77;4.13;;;7.30;99.90;;;;;;4442304;28;656154;-71
2024/02/06 09:16:08;;;;;;;17.40;4.57;;;7.30;99.90;;;;;;4410522;28;656588;-72
2024/02/06 09:18:55;;;;;;;16.23;4.10;;;7.40;99.90;;;;;;4440475;28;656231;-72
2024/02/06 09:21:44;;;;;;;11.23;3.23;;;7.50;99.90;;;;;;4424087;28;656106;-73
2024/02/06 09:24:32;;;;;;;13.33;3.60;;;7.40;99.90;;;;;;4447394;28;657059;-72
2024/02/06 09:27:19;;;;;;;20.40;4.20;;;7.50;99.90;;;;;;4407181;28;656802;-72
2024/02/06 09:30:09;;;;;;;15.50;4.60;;;7.50;99.90;;;;;;4418096;28;656695;-72
2024/02/06 09:32:56;;;;;;;15.97;4.53;;;7.40;99.90;;;;;;4417560;28;656448;-72
2024/02/06 09:35:43;;;;;;;14.50;4.27;;;7.50;99.90;;;;;;4415037;28;656603;-72
2024/02/06 09:38:32;;;;;;;16.63;4.03;;;7.60;99.90;;;;;;4444941;28;657228;-72
2024/02/06 09:41:21;;;;;;;10.52;2.67;;;7.80;99.90;;;;;;4425350;28;657064;-71
2024/02/06 09:44:08;;;;;;;13.07;4.40;;;7.70;99.90;;;;;;4419452;28;657156;-72
2024/02/06 09:46:56;;;;;;;15.45;3.97;;;7.70;99.90;;;;;;4436311;28;657527;-72
2024/02/06 09:49:43;;;;;;;11.50;4.23;;;7.80;99.90;;;;;;4425259;28;656521;-72
2024/02/06 09:52:30;;;;;;;16.33;4.40;;;7.80;99.90;;;;;;4421578;28;657166;-72
2024/02/06 09:55:19;;;;;;;9.17;2.80;;;7.90;99.90;;;;;;4410079;28;656876;-72
2024/02/06 09:58:07;;;;;;;16.10;3.97;;;7.90;99.90;;;;;;4440638;28;654950;-73
2024/02/06 10:00:55;;;;;;;14.03;3.50;;;7.90;99.90;;;;;;4395684;28;657961;-72
2024/02/06 10:03:43;;;;;;;18.37;4.63;;;7.90;99.90;;;;;;4419470;28;656476;-72
2024/02/06 10:06:31;;;;;;;16.97;4.50;;;8.00;99.90;;;;;;4418767;28;657382;-71
2024/02/06 10:09:18;;;;;;;12.47;3.77;;;8.20;99.90;;;;;;4413832;28;657177;-72
2024/02/06 10:12:07;;;;;;;19.53;4.83;;;8.20;99.90;;;;;;4436197;28;656840;-71
2024/02/06 10:14:54;;;;;;;19.47;2.67;;;8.00;99.90;;;;;;4423694;28;657459;-71
2024/02/06 10:17:42;;;;;;;16.57;5.00;;;7.90;99.90;;;;;;4435817;28;656860;-72
2024/02/06 10:20:29;;;;;;;13.80;4.13;;;7.90;99.90;;;;;;4415019;28;656339;-71
2024/02/06 10:23:16;;;;;;;14.27;4.27;;;8.00;99.90;;;;;;4436284;28;656553;-72
2024/02/06 10:26:04;;;;;;;16.13;4.03;;;8.10;99.90;;;;;;4420689;28;656622;-71
2024/02/06 10:29:02;;;;;;;7.63;3.10;;;8.00;99.90;;;;;;4444611;28;656401;-72
2024/02/06 10:31:51;;;;;;;16.27;3.80;;;8.00;99.90;;;;;;4388443;28;655245;-72
2024/02/06 10:34:38;;;;;;;13.13;4.47;;;7.90;99.90;;;;;;4412270;28;656660;-73
2024/02/06 10:37:25;;;;;;;16.70;4.43;;;7.90;99.90;;;;;;4439283;28;656693;-73
2024/02/06 10:40:13;;;;;;;14.27;4.23;;;7.90;99.90;;;;;;4401889;28;656598;-72
2024/02/06 10:43:00;;;;;;;14.30;3.90;;;7.80;99.90;;;;;;4441335;28;657557;-71
2024/02/06 10:45:58;;;;;;;9.25;3.97;;;7.90;99.90;;;;;;4422326;28;657157;-72
2024/02/06 10:48:45;;;;;;;12.50;4.60;;;7.80;99.90;;;;;;4420519;28;655688;-71
2024/02/06 10:51:33;;;;;;;8.70;3.70;;;7.90;99.90;;;;;;4420666;28;657007;-72
2024/02/06 10:54:20;;;;;;;13.77;3.50;;;7.70;99.90;;;;;;4429401;28;655946;-72
2024/02/06 10:57:09;;;;;;;5.20;2.20;;;7.70;99.90;;;;;;4419716;28;656534;-72
2024/02/06 11:00:00;;;;;;;10.13;3.03;;;7.70;99.90;;;;;;4450306;28;656368;-72
2024/02/06 11:02:53;;;;;;;16.03;4.43;;;7.60;99.90;;;;;;4403618;28;657674;-72
2024/02/06 11:05:43;;;;;;;9.73;3.53;;;7.70;99.90;;;;;;4410797;28;656845;-72
2024/02/06 11:08:30;;;;;;;5.40;1.83;;;7.70;99.90;;;;;;4426536;28;656476;-71
2024/02/06 11:11:18;;;;;;;15.87;3.47;;;7.70;99.90;;;;;;4422980;28;655741;-72
2024/02/06 11:14:06;;;;;;;9.10;3.20;;;7.70;99.90;;;;;;4435531;28;658141;-71
2024/02/06 11:16:55;;;;;;;9.50;3.93;;;7.70;99.90;;;;;;4426904;28;655557;-72
2024/02/06 11:19:48;;;;;;;11.33;3.80;;;7.70;99.90;;;;;;4436620;28;655503;-72
2024/02/06 11:22:37;;;;;;;11.83;4.37;;;7.80;99.90;;;;;;4421887;28;657271;-72
2024/02/06 11:25:27;;;;;;;7.40;2.50;;;7.90;99.90;;;;;;4423599;28;656477;-72
2024/02/06 11:28:15;;;;;;;8.23;2.43;;;7.90;99.90;;;;;;4416813;28;656029;-72
2024/02/06 11:31:03;;;;;;;10.47;3.13;;;7.90;99.90;;;;;;4445032;28;655253;-71
2024/02/06 11:33:50;;;;;;;10.47;3.27;;;7.80;99.90;;;;;;4438607;28;657643;-72
2024/02/06 11:36:39;;;;;;;15.57;4.23;;;7.80;99.90;;;;;;4427638;28;656438;-72
2024/02/06 11:39:26;;;;;;;8.40;2.77;;;7.80;99.90;;;;;;4440480;28;656305;-72
2024/02/06 11:42:22;;;;;;;15.47;3.97;;;7.90;99.90;;;;;;4412287;28;655580;-71
2024/02/06 11:45:10;;;;;;;5.33;2.77;;;7.80;99.90;;;;;;4415181;28;656527;-72
2024/02/06 11:47:58;;;;;;;6.63;1.93;;;7.80;99.90;;;;;;4406746;28;655904;-72
2024/02/06 11:50:46;;;;;;;9.70;3.40;;;7.80;99.90;;;;;;4448763;28;656105;-72
2024/02/06 11:53:35;;;;;;;5.93;2.13;;;7.80;99.90;;;;;;4405224;28;656051;-72
2024/02/06 11:56:22;;;;;;;11.97;3.47;;;7.80;99.90;;;;;;4446951;28;654948;-72
2024/02/06 11:59:09;;;;;;;5.87;2.23;;;7.80;99.90;;;;;;4415079;28;656688;-72
2024/02/06 12:01:57;;;;;;;9.88;3.22;;;7.80;99.90;;;;;;4440351;28;655785;-72
2024/02/06 12:04:44;;;;;;;14.07;4.10;;;7.90;99.90;;;;;;4416443;28;656093;-72
2024/02/06 12:07:31;;;;;;;7.17;2.50;;;7.90;99.90;;;;;;4444790;28;656442;-72
2024/02/06 12:10:25;;;;;;;7.20;2.50;;;7.90;99.90;;;;;;4423206;28;655721;-73
2024/02/06 12:13:12;;;;;;;11.80;3.27;;;7.90;99.90;;;;;;4404567;28;656094;-72
2024/02/06 12:16:02;;;;;;;11.03;4.20;;;8.00;99.90;;;;;;4442350;28;656449;-71
2024/02/06 12:18:50;;;;;;;10.10;4.13;;;8.00;99.90;;;;;;4421910;28;657087;-72
2024/02/06 12:21:39;;;;;;;10.20;2.77;;;8.00;99.90;;;;;;4421424;28;657269;-73
2024/02/06 12:24:26;;;;;;;10.03;3.63;;;8.00;99.90;;;;;;4445504;28;656541;-72
2024/02/06 12:27:16;;;;;;;9.50;2.93;;;8.00;99.90;;;;;;4420185;28;657055;-72
2024/02/06 12:30:03;;;;;;;6.23;2.93;;;8.10;99.90;;;;;;4415637;28;655528;-72
2024/02/06 12:32:50;;;;;;;7.53;3.17;;;8.00;99.90;;;;;;4446377;28;656430;-72
2024/02/06 12:35:38;;;;;;;8.50;2.93;;;8.00;99.90;;;;;;4415699;28;655731;-72
2024/02/06 12:38:25;;;;;;;14.00;3.25;;;8.00;99.90;;;;;;4443709;28;655143;-72
2024/02/06 12:41:15;;;;;;;9.70;3.77;;;8.00;99.90;;;;;;4418721;28;656560;-72
2024/02/06 12:44:03;;;;;;;9.60;3.60;;;7.90;99.90;;;;;;4426572;28;654913;-72
2024/02/06 12:46:50;;;;;;;10.13;4.17;;;8.00;99.90;;;;;;4421316;28;656230;-72
2024/02/06 12:49:38;;;;;;;11.77;3.80;;;7.80;99.90;;;;;;4397533;28;656416;-72
2024/02/06 12:52:25;;;;;;;11.60;4.13;;;7.80;99.90;;;;;;4432302;28;657410;-72
2024/02/06 12:55:13;;;;;;;7.17;2.90;;;7.90;99.90;;;;;;4423570;28;656386;-71
2024/02/06 12:58:00;;;;;;;8.27;3.27;;;7.90;99.90;;;;;;4440526;28;656585;-73
2024/02/06 13:00:55;;;;;;;11.27;3.83;;;7.90;99.90;;;;;;4431350;28;655447;-71
2024/02/06 13:03:42;;;;;;;14.97;5.03;;;8.00;99.90;;;;;;4416211;28;656925;-71
2024/02/06 13:06:36;;;;;;;14.57;3.10;;;8.00;99.90;;;;;;4442503;28;656728;-75
2024/02/06 13:09:27;;;;;;;15.07;4.80;;;8.00;99.90;;;;;;4414112;28;657491;-74
2024/02/06 13:12:15;;;;;;;7.13;3.70;;;8.00;99.90;;;;;;4410802;28;657505;-74
2024/02/06 13:15:06;;;;;;;10.77;3.33;;;8.00;99.90;;;;;;4443745;28;655345;-73
2024/02/06 13:17:58;;;;;;;11.67;4.67;;;7.90;99.90;;;;;;4383554;28;656983;-73
2024/02/06 13:20:46;;;;;;;14.63;4.90;;;7.80;99.90;;;;;;4411604;28;656996;-74
2024/02/06 13:23:33;;;;;;;7.03;3.50;;;7.80;99.90;;;;;;4410233;28;656588;-74
2024/02/06 13:26:22;;;;;;;14.70;2.73;;;7.70;99.90;;;;;;4433902;28;656189;-74
2024/02/06 13:29:09;;;;;;;15.43;4.23;;;7.70;99.90;;;;;;4405122;28;657096;-71
2024/02/06 13:31:56;;;;;;;13.17;4.30;;;7.70;99.90;;;;;;4448661;28;656016;-73
2024/02/06 13:34:45;;;;;;;8.53;2.40;;;7.70;99.90;;;;;;4408663;28;656786;-72
2024/02/06 13:37:35;;;;;;;16.33;3.73;;;7.70;99.90;;;;;;4425049;28;656395;-71
2024/02/06 13:40:22;;;;;;;5.83;2.93;;;7.70;99.90;;;;;;4430108;28;656886;-72
2024/02/06 13:43:10;;;;;;;15.43;4.23;;;7.70;99.90;;;;;;4439754;28;655297;-71
2024/02/06 13:45:57;;;;;;;12.67;4.27;;;7.70;99.90;;;;;;4437508;28;656374;-72
2024/02/06 13:48:45;;;;;;;6.37;2.80;;;7.70;99.90;;;;;;4425936;28;656514;-71
2024/02/06 13:51:33;;;;;;;7.00;3.17;;;7.70;99.90;;;;;;4443441;28;655047;-71
2024/02/06 13:54:20;;;;;;;10.00;3.77;;;7.70;99.90;;;;;;4418270;28;655273;-72
2024/02/06 13:57:08;;;;;;;11.23;2.60;;;7.70;99.90;;;;;;4409455;28;657513;-72
2024/02/06 13:59:55;;;;;;;14.90;4.20;;;7.70;99.90;;;;;;4440657;28;658375;-70
2024/02/06 14:02:43;;;;;;;12.13;5.15;;;7.60;99.90;;;;;;4409846;28;656889;-72
2024/02/06 14:05:31;;;;;;;9.77;3.53;;;7.60;99.90;;;;;;4438467;28;656343;-72
2024/02/06 14:08:19;;;;;;;18.00;5.70;;;7.60;99.90;;;;;;4425058;28;655341;-72
2024/02/06 14:11:07;;;;;;;8.63;4.30;;;7.60;99.90;;;;;;4447702;28;656272;-71
2024/02/06 14:13:54;;;;;;;11.87;2.70;;;7.50;99.90;;;;;;4422368;28;655772;-72
2024/02/06 14:16:41;;;;;;;13.43;4.87;;;7.60;99.90;;;;;;4436231;28;655736;-72
2024/02/06 14:19:28;;;;;;;10.60;3.73;;;7.50;99.90;;;;;;4422807;28;656529;-71
2024/02/06 14:22:17;;;;;;;18.50;4.60;;;7.50;99.90;;;;;;4435933;28;657418;-72
2024/02/06 14:25:06;;;;;;;13.80;3.90;;;7.50;99.90;;;;;;4421028;28;657311;-72